Peach Orchard, Arkansas
Current Conditions -  °F | °C
As of 1:15 PM on Saturday 25 Oct 2014 (Local Time) from K4M9 Reporting Station
Light Rain Light Rain  
Wind Chill: 79°   Ceiling: Unl
Heat Index: 81°   Visibility: 9mi
Dew Point: 64°   Wind: 0mph
Humidity: 61%   Direction: NA
Pressure: 30.03"   Gusts: NA
Location:  36.28°N, 90.66°W
Report Text: K4M9 251815Z AUTO 00000KT 9SM -RA CLR 26/18 A3003 RMK AO2
Loading
Personal Weather Stations






























Interactive Weather Map
Tropical Storm Tracking
New forecast layout! Learn more

10-Day Weather Forecast

Advertisements
Track Severe Weather on mobile